Iizuka, Japan
Current Conditions -  °F | °C
As of 8:30 PM on Thursday 18 Dec 2014 (Local Time) from RJFF Reporting Station
Scattered Clouds Scattered Clouds  
Wind Chill: 26°   Ceiling: Unl
Heat Index: 32°   Visibility: 6mi
Dew Point: 23°   Wind: 6mph
Humidity: 69%   Direction: 150°SSE
Pressure: 30.48"   Gusts: NA
Location:  33.64°N, 130.69°E
Report Text: RJFF 181130Z 15005KT 9999 FEW035 SCT040 00/M05 Q1032 RMK 1CU035 3SC040 A3049
Loading
Personal Weather Stations






























Interactive Weather Map New forecast layout! Learn more

10-Day Weather Forecast

Advertisements
Track Severe Weather on mobile